Kennebunkport, ME (04046)

2:24 AM EST on January 27, 2015 (GMT -0500)
APRSWXNET Kennebunkport ME US | Change Station
CLOSE
Current Station
Personal Weather Station
Location: Kennebunkport, ME
Elevation: 98 ft
Nearby Weather Stations

Elev 98 ft 43.37 °N, 70.47 °W | Updated 22 minutes ago

Snow
Snow
13 °F
Feels Like 1 °F
N
9
Wind Variable Wind from North
Gusts 19.0 mph

Today
High -- | Low -- °F
--% Chance of Precip.
Yesterday
High -- | Low -- °F
Precip. -- in
7:03 AM 4:46 PM
Waxing Crescent, 51% visible
Pressure 29.83 in
Visibility 1.0 miles
Clouds Overcast 1300 ft
Windchill 1 °F
Dew Point 10 °F
Humidity 89%
Rainfall 0.00 in
Snow Depth Not available.
UV 0 out of 12
Pollen .10 out of 12
Air Quality Not available.
Flu Activity Not available.
METAR KSFM 270715Z AUTO 01021G28KT 1SM OVC013 M12/M14 A2983 RMK AO1

More Conditions Fewer Conditions

Pressure 29.83 in
Visibility 1.0 miles
Clouds Overcast 1300 ft
Windchill 1 °F
Dew Point 10 °F
Humidity 89%
Rainfall 0.00 in
Snow Depth Not available.
UV 0 out of 12
Pollen .10 out of 12
Air Quality Not available.
Flu Activity Not available.
METAR KSFM 270715Z AUTO 01021G28KT 1SM OVC013 M12/M14 A2983 RMK AO1

More Conditions Fewer Conditions

10-Day Weather Forecast

Almanac

Astronomy

Jan. 27, 2015 Rise Set
Actual Time
Civil Twilight
Nautical Twilight
Astronomical Twilight
Moon
Length of Visible Light
Length of Day
Tomorrow will be .
, % of the Moon is Illuminated

Today's Extremes

State Highs State Lows

Community

WunderPhotos

Upload Photos

1,790,543 photos uploaded!

WunderBlogs® & News

Nearby

Air Quality

  Air Quality AQ Index Pollutant
Not available.

Snow Depth

Station Depth Elevation

Earthquake Activity

City Distance Mag. Time & Date
Minimum magnitude displayed is 2.5.

Coastal Water Temperatures

Place Temperature

Nearby Weather Stations